Time;durP1;ratioP1;P1;durP2;ratioP2;P2;SDS_P1;SDS_P2;PMS_P1;PMS_P2;Temp;Humidity;BMP_temperature;BMP_pressure;BME280_temperature;BME280_humidity;BME280_pressure;Samples;Min_cycle;Max_cycle;Signal;HPM_P1;HPM_P2
2021/01/18 00:00:26;;;;;;;37.33;15.30;;;-1.60;99.90;;;;;;5059079;28;20119;-75
2021/01/18 00:02:52;;;;;;;33.60;15.07;;;-1.70;99.90;;;;;;5070000;28;20024;-76
2021/01/18 00:05:18;;;;;;;31.83;15.18;;;-1.70;99.90;;;;;;5068126;28;20415;-77
2021/01/18 00:07:48;;;;;;;31.40;13.65;;;-1.70;99.90;;;;;;5090186;28;20088;-77
2021/01/18 00:10:17;;;;;;;35.03;15.40;;;-1.70;99.90;;;;;;5093457;28;20058;-77
2021/01/18 00:12:45;;;;;;;33.08;14.27;;;-1.70;99.90;;;;;;5058578;28;20024;-76
2021/01/18 00:15:11;;;;;;;37.88;14.93;;;-1.60;99.90;;;;;;5075314;28;20028;-77
2021/01/18 00:17:36;;;;;;;32.92;14.07;;;-1.60;99.90;;;;;;5074545;28;20067;-77
2021/01/18 00:20:03;;;;;;;34.05;14.40;;;-1.70;99.90;;;;;;5092671;28;20033;-77
2021/01/18 00:22:29;;;;;;;33.88;14.32;;;-1.60;99.90;;;;;;5093246;28;20149;-76
2021/01/18 00:24:55;;;;;;;31.67;13.25;;;-1.60;99.90;;;;;;5102818;22;20448;-76
2021/01/18 00:27:21;;;;;;;37.72;14.10;;;-1.60;99.90;;;;;;5047868;28;20112;-76
2021/01/18 00:29:48;;;;;;;30.67;14.85;;;-1.60;99.90;;;;;;5050738;28;20476;-75
2021/01/18 00:32:15;;;;;;;32.15;14.95;;;-1.60;99.90;;;;;;5052003;28;20462;-75
2021/01/18 00:34:41;;;;;;;32.17;13.85;;;-1.60;99.90;;;;;;5051453;28;20029;-76
2021/01/18 00:37:06;;;;;;;31.05;14.07;;;-1.60;99.90;;;;;;5049218;28;20044;-76
2021/01/18 00:39:32;;;;;;;29.02;13.70;;;-1.60;99.90;;;;;;5050513;28;20484;-75
2021/01/18 00:41:58;;;;;;;30.63;13.70;;;-1.60;99.90;;;;;;5050356;28;20120;-75
2021/01/18 00:44:24;;;;;;;34.55;14.43;;;-1.60;99.90;;;;;;5050011;28;20055;-76
2021/01/18 00:46:49;;;;;;;32.42;14.82;;;-1.50;99.90;;;;;;5050036;28;20036;-76
2021/01/18 00:49:15;;;;;;;28.65;13.65;;;-1.50;99.90;;;;;;5051602;28;20035;-76
2021/01/18 00:51:41;;;;;;;31.02;14.35;;;-1.60;99.90;;;;;;5050067;28;20033;-76
2021/01/18 00:54:08;;;;;;;28.70;12.95;;;-1.60;99.90;;;;;;5051581;28;20033;-76
2021/01/18 00:56:41;;;;;;;30.20;13.68;;;-1.60;99.90;;;;;;5032696;28;20154;-76
2021/01/18 00:59:14;;;;;;;32.05;14.27;;;-1.60;99.90;;;;;;5034482;28;20025;-75
2021/01/18 01:01:46;;;;;;;29.27;14.27;;;-1.50;99.90;;;;;;5034512;28;20040;-75
2021/01/18 01:04:13;;;;;;;33.22;15.55;;;-1.40;99.90;;;;;;5033413;28;20488;-76
2021/01/18 01:06:38;;;;;;;34.95;14.63;;;-1.50;99.90;;;;;;5031592;28;20124;-75
2021/01/18 01:09:04;;;;;;;31.15;14.07;;;-1.50;99.90;;;;;;5033468;28;20025;-75
2021/01/18 01:11:30;;;;;;;30.05;14.50;;;-1.40;99.90;;;;;;5051204;28;20025;-75
2021/01/18 01:13:56;;;;;;;36.25;16.90;;;-1.40;99.90;;;;;;5050555;28;20025;-75
2021/01/18 01:16:22;;;;;;;31.98;14.50;;;-1.50;99.90;;;;;;5049820;28;20477;-76
2021/01/18 01:18:48;;;;;;;33.88;13.85;;;-1.50;99.90;;;;;;5050753;28;20040;-75
2021/01/18 01:21:14;;;;;;;33.55;14.27;;;-1.50;99.90;;;;;;5051116;28;20021;-76
2021/01/18 01:23:39;;;;;;;29.63;13.63;;;-1.50;99.90;;;;;;5050982;28;20662;-76
2021/01/18 01:26:05;;;;;;;32.75;14.60;;;-1.50;99.90;;;;;;5050248;28;20044;-76
2021/01/18 01:28:31;;;;;;;32.25;13.95;;;-1.50;99.90;;;;;;5048432;28;20116;-75
2021/01/18 01:30:56;;;;;;;28.60;14.20;;;-1.50;99.90;;;;;;5050885;28;20120;-76
2021/01/18 01:33:22;;;;;;;33.95;14.38;;;-1.50;99.90;;;;;;5049329;28;20041;-76
2021/01/18 01:35:48;;;;;;;28.45;13.35;;;-1.50;99.90;;;;;;5050821;28;20536;-76
2021/01/18 01:38:14;;;;;;;30.65;13.70;;;-1.50;99.90;;;;;;5049266;28;20110;-76
2021/01/18 01:40:39;;;;;;;37.33;14.13;;;-1.50;99.90;;;;;;5049527;28;20159;-76
2021/01/18 01:43:05;;;;;;;31.95;14.30;;;-1.40;99.90;;;;;;5030155;28;20029;-76
2021/01/18 01:45:31;;;;;;;31.83;15.05;;;-1.40;99.90;;;;;;5049110;28;20488;-76
2021/01/18 01:47:57;;;;;;;35.35;14.70;;;-1.40;99.90;;;;;;5048711;28;20504;-75
2021/01/18 01:50:28;;;;;;;31.98;14.32;;;-1.40;99.90;;;;;;5050210;28;20492;-75
2021/01/18 01:53:02;;;;;;;33.70;14.65;;;-1.40;99.90;;;;;;5032228;28;20079;-75
2021/01/18 01:55:30;;;;;;;;;;;-1.40;99.90;;;;;;5050495;28;20032;-75
2021/01/18 01:57:59;;;;;;;27.17;12.73;;;-1.40;99.90;;;;;;5046233;28;19919;-75
2021/01/18 02:00:36;;;;;;;29.95;13.63;;;-1.40;99.90;;;;;;5045666;28;20136;-75
2021/01/18 02:03:06;;;;;;;29.83;13.80;;;-1.40;99.90;;;;;;5029892;28;20068;-75
2021/01/18 02:05:32;;;;;;;30.00;13.30;;;-1.40;99.90;;;;;;5050180;28;20037;-75
2021/01/18 02:08:03;;;;;;;27.10;12.25;;;-1.40;99.90;;;;;;5048084;28;20041;-75
2021/01/18 02:10:30;;;;;;;29.00;13.80;;;-1.40;99.90;;;;;;5050354;28;20029;-76
2021/01/18 02:13:00;;;;;;;30.88;13.48;;;-1.40;99.90;;;;;;5049941;28;20116;-75
2021/01/18 02:15:40;;;;;;;36.33;14.98;;;-1.40;99.90;;;;;;5050414;28;20040;-75
2021/01/18 02:18:24;;;;;;;36.33;14.80;;;-1.40;99.90;;;;;;5049409;28;20040;-75
2021/01/18 02:21:27;;;;;;;32.58;14.38;;;-1.40;99.90;;;;;;5049916;28;20113;-75
2021/01/18 02:24:02;;;;;;;34.03;15.00;;;-1.30;99.90;;;;;;5040298;28;20035;-75
2021/01/18 02:27:09;;;;;;;38.13;14.55;;;-1.20;99.90;;;;;;5048186;28;20048;-76
2021/01/18 02:30:17;;;;;;;40.40;14.65;;;-1.10;99.90;;;;;;5030120;28;20025;-76
2021/01/18 02:33:20;;;;;;;38.90;15.43;;;-1.10;99.90;;;;;;5028831;28;20084;-75
2021/01/18 02:36:01;;;;;;;35.15;16.30;;;-1.10;99.90;;;;;;5030301;28;20022;-75
2021/01/18 02:38:43;;;;;;;36.60;14.70;;;-1.20;99.90;;;;;;5028426;28;20025;-75
2021/01/18 02:41:15;;;;;;;37.00;16.23;;;-1.20;99.90;;;;;;5030025;28;20036;-75
2021/01/18 02:43:58;;;;;;;34.42;14.32;;;-1.20;99.90;;;;;;5029932;28;20036;-75
2021/01/18 02:46:26;;;;;;;31.27;14.40;;;-1.30;99.90;;;;;;5027845;28;20047;-75
2021/01/18 02:48:53;;;;;;;36.70;15.48;;;-1.30;99.90;;;;;;5033800;28;20385;-75
2021/01/18 02:51:22;;;;;;;36.22;15.98;;;-1.30;99.90;;;;;;5050105;28;20468;-75
2021/01/18 02:53:58;;;;;;;34.55;15.20;;;-1.30;99.90;;;;;;5048592;28;20040;-75
2021/01/18 02:56:33;;;;;;;37.60;15.32;;;-1.30;99.90;;;;;;5048224;28;20326;-76
2021/01/18 02:59:00;;;;;;;35.03;15.30;;;-1.30;99.90;;;;;;5049438;28;20028;-76
2021/01/18 03:01:56;;;;;;;39.80;15.25;;;-1.30;99.90;;;;;;5049687;28;20056;-76
2021/01/18 03:04:28;;;;;;;35.30;15.10;;;-1.30;99.90;;;;;;5028554;28;20022;-76
2021/01/18 03:07:01;;;;;;;39.85;15.25;;;-1.30;99.90;;;;;;5028319;28;20565;-75
2021/01/18 03:09:36;;;;;;;35.92;15.52;;;-1.30;99.90;;;;;;5039617;28;20025;-74
2021/01/18 03:12:09;;;;;;;34.92;14.65;;;-1.30;99.90;;;;;;5047430;28;20408;-75
2021/01/18 03:14:45;;;;;;;30.85;13.85;;;-1.30;99.90;;;;;;5049704;28;20543;-75
2021/01/18 03:17:17;;;;;;;35.92;15.63;;;-1.30;99.90;;;;;;5052100;28;20025;-75
2021/01/18 03:19:44;;;;;;;39.45;15.88;;;-1.30;99.90;;;;;;5052235;28;20041;-75
2021/01/18 03:22:20;;;;;;;32.63;14.27;;;-1.30;99.90;;;;;;5053378;28;20036;-75
2021/01/18 03:24:46;;;;;;;36.67;15.30;;;-1.30;99.90;;;;;;5053201;28;20409;-75
2021/01/18 03:27:13;;;;;;;36.13;15.38;;;-1.40;99.90;;;;;;5051531;28;20043;-76
2021/01/18 03:29:39;;;;;;;29.48;14.35;;;-1.30;99.90;;;;;;5053186;28;20032;-76
2021/01/18 03:32:06;;;;;;;30.33;13.77;;;-1.30;99.90;;;;;;5053263;28;20033;-75
2021/01/18 03:34:33;;;;;;;33.97;14.48;;;-1.40;99.90;;;;;;5052975;28;20075;-75
2021/01/18 03:36:59;;;;;;;32.38;14.77;;;-1.40;99.90;;;;;;5051922;28;20037;-76
2021/01/18 03:39:25;;;;;;;32.95;14.43;;;-1.30;99.90;;;;;;5052988;28;20087;-75
2021/01/18 03:41:50;;;;;;;32.95;14.40;;;-1.40;99.90;;;;;;5052373;28;20477;-75
2021/01/18 03:44:16;;;;;;;32.85;14.38;;;-1.30;99.90;;;;;;5051733;28;20033;-75
2021/01/18 03:46:45;;;;;;;31.58;14.70;;;-1.30;99.90;;;;;;5051477;28;20032;-75
2021/01/18 03:49:13;;;;;;;32.50;14.20;;;-1.30;99.90;;;;;;5030826;28;20033;-75
2021/01/18 03:51:39;;;;;;;36.42;14.57;;;-1.30;99.90;;;;;;5051439;28;20036;-75
2021/01/18 03:54:05;;;;;;;29.80;13.25;;;-1.30;99.90;;;;;;5053091;28;20483;-74
2021/01/18 03:56:31;;;;;;;31.70;13.93;;;-1.30;99.90;;;;;;5051319;28;20025;-76
2021/01/18 03:58:56;;;;;;;31.48;13.25;;;-1.30;99.90;;;;;;5052535;28;20029;-74
2021/01/18 04:01:22;;;;;;;31.23;13.25;;;-1.30;99.90;;;;;;5052760;28;20033;-76
2021/01/18 04:03:48;;;;;;;36.80;14.38;;;-1.20;99.90;;;;;;5051402;28;20033;-76
2021/01/18 04:06:13;;;;;;;29.13;13.10;;;-1.20;99.90;;;;;;5050120;28;20638;-74
2021/01/18 04:08:39;;;;;;;34.40;14.25;;;-1.20;99.90;;;;;;5051094;28;20033;-76
2021/01/18 04:11:05;;;;;;;27.40;13.40;;;-1.20;99.90;;;;;;5051907;28;20055;-76
2021/01/18 04:13:30;;;;;;;28.90;12.35;;;-1.20;99.90;;;;;;5052338;28;20040;-76
2021/01/18 04:15:56;;;;;;;34.42;13.60;;;-1.20;99.90;;;;;;5051068;28;20036;-76
2021/01/18 04:18:22;;;;;;;34.40;14.98;;;-1.20;99.90;;;;;;5051070;28;20115;-76
2021/01/18 04:20:47;;;;;;;31.88;13.30;;;-1.10;99.90;;;;;;5050790;28;20043;-76
2021/01/18 04:23:13;;;;;;;30.13;13.00;;;-1.10;99.90;;;;;;5052323;28;20028;-76
2021/01/18 04:25:39;;;;;;;31.85;12.82;;;-1.10;99.90;;;;;;5051345;28;20087;-75
2021/01/18 04:28:05;;;;;;;28.98;13.45;;;-1.10;99.90;;;;;;5049347;28;20032;-75
2021/01/18 04:30:35;;;;;;;36.10;14.80;;;-1.10;99.90;;;;;;5050992;28;20534;-76
2021/01/18 04:33:06;;;;;;;34.58;13.45;;;-1.00;99.90;;;;;;5050773;28;20025;-75
2021/01/18 04:35:37;;;;;;;30.38;13.63;;;-1.10;99.90;;;;;;5051996;28;20037;-75
2021/01/18 04:38:04;;;;;;;29.70;12.85;;;-1.10;99.90;;;;;;5049530;28;20036;-76
2021/01/18 04:40:31;;;;;;;30.27;13.63;;;-1.20;99.90;;;;;;5051476;28;20087;-75
2021/01/18 04:42:57;;;;;;;34.53;13.73;;;-1.10;99.90;;;;;;5050673;28;20048;-75
2021/01/18 04:45:24;;;;;;;31.80;13.48;;;-1.20;99.90;;;;;;5052206;28;20043;-75
2021/01/18 04:47:54;;;;;;;25.75;12.13;;;-1.20;99.90;;;;;;5050771;28;20032;-75
2021/01/18 04:50:22;;;;;;;33.67;14.55;;;-1.20;99.90;;;;;;5051941;28;20025;-75
2021/01/18 04:52:50;;;;;;;28.38;12.75;;;-1.10;99.90;;;;;;5051543;28;20070;-75
2021/01/18 04:55:32;;;;;;;31.25;11.93;;;-1.10;99.90;;;;;;5051633;28;20033;-75
2021/01/18 04:58:12;;;;;;;31.25;13.00;;;-1.10;99.90;;;;;;5050125;28;20450;-75
2021/01/18 05:00:48;;;;;;;30.80;13.32;;;-1.00;99.90;;;;;;5051770;28;20500;-75
2021/01/18 05:03:24;;;;;;;41.28;16.63;;;-1.00;99.90;;;;;;5034289;28;20444;-75
2021/01/18 05:06:11;;;;;;;38.72;16.10;;;-0.90;99.90;;;;;;5040381;28;20658;-75
2021/01/18 05:08:59;;;;;;;35.53;15.70;;;-1.00;99.90;;;;;;5050653;28;20025;-75
2021/01/18 05:11:24;;;;;;;36.30;15.98;;;-1.00;99.90;;;;;;5049943;28;20028;-75
2021/01/18 05:13:50;;;;;;;37.03;16.00;;;-0.90;99.90;;;;;;5050979;28;20029;-75
2021/01/18 05:16:16;;;;;;;33.22;15.43;;;-1.00;99.90;;;;;;5049758;28;20025;-75
2021/01/18 05:18:42;;;;;;;39.63;15.43;;;-1.00;99.90;;;;;;5051045;28;20036;-75
2021/01/18 05:21:09;;;;;;;36.38;16.33;;;-1.10;99.90;;;;;;5051184;28;20025;-75
2021/01/18 05:23:42;;;;;;;39.47;16.88;;;-1.10;99.90;;;;;;5049592;28;20033;-75
2021/01/18 05:26:25;;;;;;;38.95;16.23;;;-1.00;99.90;;;;;;5048512;28;20045;-75
2021/01/18 05:28:54;;;;;;;46.28;18.27;;;-1.00;99.90;;;;;;5050820;28;20536;-75
2021/01/18 05:31:28;;;;;;;38.42;16.50;;;-1.00;99.90;;;;;;5050976;28;20040;-75
2021/01/18 05:33:55;;;;;;;43.30;18.75;;;-1.00;99.90;;;;;;5050714;28;20025;-75
2021/01/18 05:36:36;;;;;;;47.13;18.40;;;-0.90;99.90;;;;;;5047920;28;20037;-75
2021/01/18 05:39:17;;;;;;;41.22;16.75;;;-0.90;99.90;;;;;;5049202;28;20025;-75
2021/01/18 05:41:45;;;;;;;40.38;17.30;;;-1.00;99.90;;;;;;5050919;28;20036;-75
2021/01/18 05:44:11;;;;;;;45.67;19.90;;;-1.10;99.90;;;;;;5049478;28;20444;-75
2021/01/18 05:46:39;;;;;;;37.08;15.57;;;-1.00;99.90;;;;;;5048016;28;20036;-75
2021/01/18 05:49:14;;;;;;;41.40;16.52;;;-1.10;99.90;;;;;;5048811;28;20028;-75
2021/01/18 05:51:40;;;;;;;35.30;16.67;;;-1.10;99.90;;;;;;5045588;28;20025;-75
2021/01/18 05:54:09;;;;;;;36.78;17.00;;;-1.00;99.90;;;;;;5048614;28;20036;-75
2021/01/18 05:56:43;;;;;;;33.10;14.32;;;-1.10;99.90;;;;;;5049167;28;20048;-75
2021/01/18 05:59:19;;;;;;;29.80;14.07;;;-1.00;99.90;;;;;;5049780;28;20060;-75
2021/01/18 06:01:46;;;;;;;32.83;13.82;;;-1.00;99.90;;;;;;5046954;28;20021;-75
2021/01/18 06:04:14;;;;;;;33.63;13.82;;;-0.90;99.90;;;;;;5050025;28;20028;-75
2021/01/18 06:06:42;;;;;;;35.92;15.32;;;-1.00;99.90;;;;;;5047869;28;20070;-75
2021/01/18 06:09:08;;;;;;;33.15;14.40;;;-1.00;99.90;;;;;;5049710;28;20025;-75
2021/01/18 06:11:34;;;;;;;36.03;15.25;;;-1.00;99.90;;;;;;5049635;28;20052;-75
2021/01/18 06:14:05;;;;;;;33.20;13.38;;;-1.00;99.90;;;;;;5046197;28;20029;-75
2021/01/18 06:16:31;;;;;;;33.40;14.15;;;-1.10;99.90;;;;;;5048688;28;20029;-75
2021/01/18 06:19:07;;;;;;;32.88;13.68;;;-1.00;99.90;;;;;;5049785;28;20033;-75
2021/01/18 06:21:40;;;;;;;33.88;14.20;;;-1.00;99.90;;;;;;5048537;28;20036;-75
2021/01/18 06:24:18;;;;;;;33.47;13.80;;;-1.00;99.90;;;;;;5049895;28;20020;-76
2021/01/18 06:26:45;;;;;;;32.80;14.55;;;-1.00;99.90;;;;;;5047087;28;20033;-75
2021/01/18 06:31:45;;;;;;;38.42;14.98;;;-0.80;99.90;;;;;;5045707;28;20526;-77
2021/01/18 06:34:10;;;;;;;34.13;15.57;;;-0.80;99.90;;;;;;5030321;28;20029;-75
2021/01/18 06:36:37;;;;;;;32.70;13.98;;;-0.80;99.90;;;;;;5013567;28;20456;-75
2021/01/18 06:39:07;;;;;;;33.33;13.80;;;-0.90;99.90;;;;;;4993483;28;20057;-75
2021/01/18 06:41:37;;;;;;;26.17;13.07;;;-0.90;99.90;;;;;;5010166;28;20034;-75
2021/01/18 06:44:04;;;;;;;32.00;13.18;;;-1.00;99.90;;;;;;5005405;28;20046;-75
2021/01/18 06:46:33;;;;;;;29.10;12.85;;;-1.10;99.90;;;;;;5011703;28;20025;-75
2021/01/18 06:48:59;;;;;;;31.52;13.95;;;-1.10;99.90;;;;;;5005385;28;20513;-75
2021/01/18 06:51:26;;;;;;;34.10;15.20;;;-1.20;99.90;;;;;;5014229;28;20057;-75
2021/01/18 06:53:54;;;;;;;34.13;15.20;;;-1.20;99.90;;;;;;5014476;28;20173;-75
2021/01/18 06:56:23;;;;;;;32.45;13.70;;;-1.30;99.90;;;;;;5013218;28;20034;-75
2021/01/18 06:59:14;;;;;;;36.33;13.55;;;-1.40;99.90;;;;;;4996424;28;20026;-75
2021/01/18 07:01:42;;;;;;;30.42;12.82;;;-1.40;99.90;;;;;;4988532;28;20044;-75
2021/01/18 07:04:14;;;;;;;25.88;12.98;;;-1.50;99.90;;;;;;5021206;28;20041;-75
2021/01/18 07:06:44;;;;;;;30.92;13.43;;;-1.50;99.90;;;;;;5032295;28;20036;-75
2021/01/18 07:09:09;;;;;;;31.33;14.18;;;-1.50;99.90;;;;;;5015877;28;20068;-75
2021/01/18 07:11:36;;;;;;;28.88;13.30;;;-1.40;99.90;;;;;;5015354;28;20065;-75
2021/01/18 07:14:10;;;;;;;36.70;13.75;;;-1.40;99.90;;;;;;4993558;28;20018;-75
2021/01/18 07:16:38;;;;;;;35.63;14.38;;;-1.40;99.90;;;;;;4992906;28;20043;-75
2021/01/18 07:19:06;;;;;;;28.73;13.00;;;-1.30;99.90;;;;;;4994072;28;20035;-75
2021/01/18 07:21:58;;;;;;;28.38;12.60;;;-1.30;99.90;;;;;;5007227;28;20022;-75
2021/01/18 07:24:29;;;;;;;28.30;13.00;;;-1.30;99.90;;;;;;5012000;28;20494;-75
2021/01/18 07:27:05;;;;;;;29.42;12.35;;;-1.30;99.90;;;;;;5015429;28;20041;-75
2021/01/18 07:29:32;;;;;;;29.58;13.23;;;-1.30;99.90;;;;;;5016574;28;20092;-75
2021/01/18 07:31:59;;;;;;;29.23;11.50;;;-1.30;99.90;;;;;;5020761;28;20037;-75
2021/01/18 07:34:27;;;;;;;28.88;10.77;;;-1.30;99.90;;;;;;5024698;28;20022;-75
2021/01/18 07:37:04;;;;;;;21.10;8.40;;;-1.30;99.90;;;;;;5017004;28;20034;-75
2021/01/18 07:39:39;;;;;;;21.20;8.65;;;-1.30;99.90;;;;;;5021500;28;20041;-75
2021/01/18 07:42:06;;;;;;;20.08;7.80;;;-1.20;99.90;;;;;;5022128;28;20535;-75
2021/01/18 07:44:45;;;;;;;15.77;7.32;;;-1.20;99.90;;;;;;5012024;28;20088;-75
2021/01/18 07:47:12;;;;;;;16.75;7.60;;;-1.10;99.90;;;;;;5008038;28;20050;-75
2021/01/18 07:49:46;;;;;;;13.95;6.68;;;-1.00;99.90;;;;;;5012436;28;20504;-75
2021/01/18 07:52:16;;;;;;;20.45;7.45;;;-0.90;99.90;;;;;;5010747;28;20157;-75
2021/01/18 07:54:42;;;;;;;16.23;7.32;;;-0.90;99.90;;;;;;5012797;28;20109;-76
2021/01/18 07:57:27;;;;;;;18.65;7.60;;;-0.80;99.90;;;;;;5004082;28;20549;-75
2021/01/18 08:00:18;;;;;;;17.27;6.40;;;-0.70;99.90;;;;;;5007894;28;20031;-75
2021/01/18 08:02:45;;;;;;;18.13;7.40;;;-0.70;99.90;;;;;;5028706;28;20030;-75
2021/01/18 08:05:31;;;;;;;23.85;9.82;;;-0.60;99.90;;;;;;5017106;28;20017;-75
2021/01/18 08:08:06;;;;;;;25.73;11.07;;;-0.50;99.90;;;;;;5013486;28;20049;-75
2021/01/18 08:10:47;;;;;;;25.10;10.88;;;-0.50;99.90;;;;;;5023240;28;20105;-75
2021/01/18 08:13:44;;;;;;;23.02;10.80;;;-0.40;99.90;;;;;;5011986;28;20457;-75
2021/01/18 08:16:09;;;;;;;32.80;11.13;;;-0.40;99.90;;;;;;5008684;28;20056;-74
2021/01/18 08:18:35;;;;;;;24.80;10.18;;;-0.40;99.90;;;;;;5015918;28;20101;-75
2021/01/18 08:21:39;;;;;;;25.67;10.70;;;-0.30;99.90;;;;;;5015009;28;20073;-75
2021/01/18 08:24:11;;;;;;;23.33;9.75;;;-0.30;99.90;;;;;;5014499;28;20034;-75
2021/01/18 08:26:55;;;;;;;20.85;9.27;;;-0.30;99.90;;;;;;5008834;28;20026;-75
2021/01/18 08:29:52;;;;;;;20.63;8.45;;;-0.30;99.90;;;;;;5015299;28;20030;-75
2021/01/18 08:32:23;;;;;;;18.33;7.78;;;-0.30;99.90;;;;;;5012976;28;20021;-75
2021/01/18 08:34:55;;;;;;;19.40;7.70;;;-0.30;99.90;;;;;;5010802;28;20018;-75
2021/01/18 08:37:22;;;;;;;13.85;6.68;;;-0.20;99.90;;;;;;5002347;28;20157;-75
2021/01/18 08:39:59;;;;;;;21.40;7.80;;;-0.20;99.90;;;;;;5005929;28;20026;-75
2021/01/18 08:42:31;;;;;;;14.77;6.53;;;-0.20;99.90;;;;;;4999567;28;20436;-77
2021/01/18 08:45:10;;;;;;;22.73;7.65;;;-0.20;99.90;;;;;;5001401;28;20022;-75
2021/01/18 08:47:45;;;;;;;17.00;7.40;;;-0.10;99.90;;;;;;5009016;28;20042;-75
2021/01/18 08:50:34;;;;;;;18.10;7.57;;;0.00;99.90;;;;;;4989787;28;20029;-74
2021/01/18 08:53:02;;;;;;;19.17;8.35;;;0.10;99.90;;;;;;4995611;28;20022;-76
2021/01/18 08:55:28;;;;;;;15.65;7.07;;;0.10;99.90;;;;;;5001207;28;20018;-75
2021/01/18 08:57:58;;;;;;;15.73;6.55;;;0.10;99.90;;;;;;4992806;28;20041;-75
2021/01/18 09:00:24;;;;;;;14.60;6.18;;;0.20;99.90;;;;;;4997802;28;20501;-75
2021/01/18 09:02:50;;;;;;;11.50;5.40;;;0.20;99.90;;;;;;4995912;28;20034;-75
2021/01/18 09:05:19;;;;;;;10.45;5.63;;;0.20;99.90;;;;;;5017478;28;20038;-75
2021/01/18 09:07:46;;;;;;;13.93;5.47;;;0.20;99.90;;;;;;4997644;28;20709;-75
2021/01/18 09:10:19;;;;;;;12.85;6.10;;;0.20;99.90;;;;;;5000767;28;20027;-75
2021/01/18 09:12:47;;;;;;;10.75;5.03;;;0.30;99.90;;;;;;5013676;28;20375;-75
2021/01/18 09:15:14;;;;;;;13.88;5.65;;;0.30;99.90;;;;;;4996175;28;20030;-75
2021/01/18 09:17:41;;;;;;;9.48;5.15;;;0.40;99.90;;;;;;4990900;28;20092;-75
2021/01/18 09:20:09;;;;;;;12.63;5.43;;;0.40;99.90;;;;;;4988453;28;20712;-75
2021/01/18 09:22:37;;;;;;;8.40;4.78;;;0.50;99.90;;;;;;4991984;28;20033;-75
2021/01/18 09:25:07;;;;;;;9.65;4.93;;;0.50;99.90;;;;;;4994798;28;20044;-75
2021/01/18 09:27:34;;;;;;;10.20;4.60;;;0.50;99.90;;;;;;4978313;28;20416;-75
2021/01/18 09:30:04;;;;;;;10.15;4.88;;;0.50;99.90;;;;;;4994487;28;20042;-75
2021/01/18 09:32:30;;;;;;;8.00;4.85;;;0.60;99.90;;;;;;4996180;28;20026;-75
2021/01/18 09:35:06;;;;;;;8.95;5.00;;;0.60;99.90;;;;;;4994174;28;20025;-75
2021/01/18 09:37:32;;;;;;;8.57;4.28;;;0.60;99.90;;;;;;4992520;28;20037;-75
2021/01/18 09:40:01;;;;;;;6.07;3.83;;;0.60;99.90;;;;;;5013678;28;20030;-75
2021/01/18 09:42:29;;;;;;;8.43;4.22;;;0.70;99.90;;;;;;4998143;28;20030;-74
2021/01/18 09:44:55;;;;;;;6.78;4.00;;;0.70;99.90;;;;;;5005180;28;20493;-75
2021/01/18 09:47:22;;;;;;;7.25;3.72;;;0.70;99.90;;;;;;4995113;28;20561;-75
2021/01/18 09:49:48;;;;;;;7.70;4.22;;;0.80;99.90;;;;;;5000102;28;20436;-76
2021/01/18 09:52:14;;;;;;;5.80;3.47;;;0.80;99.90;;;;;;4978457;28;20037;-75
2021/01/18 09:54:42;;;;;;;10.10;4.43;;;0.90;99.90;;;;;;5001864;28;20083;-77
2021/01/18 09:57:13;;;;;;;4.75;3.50;;;0.90;99.90;;;;;;4999998;28;20038;-76
2021/01/18 09:59:40;;;;;;;8.30;3.70;;;0.90;99.90;;;;;;4995877;28;20030;-76
2021/01/18 10:02:11;;;;;;;6.93;3.75;;;0.90;99.90;;;;;;4996446;28;20037;-76
2021/01/18 10:04:39;;;;;;;6.68;3.70;;;1.00;99.90;;;;;;4989887;28;20061;-76
2021/01/18 10:07:09;;;;;;;8.65;4.47;;;1.00;99.90;;;;;;4998181;28;20049;-75
2021/01/18 10:09:35;;;;;;;8.10;4.00;;;1.00;99.90;;;;;;5007409;28;20028;-75
2021/01/18 10:12:04;;;;;;;8.23;3.58;;;1.10;99.90;;;;;;4996848;28;20445;-75
2021/01/18 10:14:30;;;;;;;8.40;4.10;;;1.10;99.90;;;;;;4996603;28;20141;-75
2021/01/18 10:17:00;;;;;;;7.75;4.13;;;1.10;99.90;;;;;;4989928;28;20076;-74
2021/01/18 10:19:27;;;;;;;7.90;4.28;;;1.10;99.90;;;;;;5001167;28;20036;-75
2021/01/18 10:21:54;;;;;;;12.45;5.05;;;1.10;99.90;;;;;;4994340;28;20022;-75
2021/01/18 10:24:31;;;;;;;5.80;3.58;;;1.10;99.90;;;;;;4993511;28;20025;-75
2021/01/18 10:27:10;;;;;;;9.40;4.28;;;1.20;99.90;;;;;;4993484;28;20041;-74
2021/01/18 10:29:46;;;;;;;6.18;3.95;;;1.20;99.90;;;;;;4995374;28;20033;-74
2021/01/18 10:32:11;;;;;;;7.78;4.20;;;1.30;99.90;;;;;;4994086;28;20370;-75
2021/01/18 10:34:37;;;;;;;8.30;4.88;;;1.30;99.90;;;;;;4976857;28;20048;-74
2021/01/18 10:37:18;;;;;;;6.65;4.07;;;1.40;99.90;;;;;;4994766;28;20045;-75
2021/01/18 10:39:47;;;;;;;6.78;4.07;;;1.40;99.90;;;;;;5012952;28;20033;-75
2021/01/18 10:42:19;;;;;;;7.28;4.70;;;1.50;99.90;;;;;;4985190;28;20119;-75
2021/01/18 10:44:53;;;;;;;7.30;3.95;;;1.60;99.90;;;;;;4983329;28;20045;-74
2021/01/18 10:47:26;;;;;;;7.80;4.10;;;1.60;99.90;;;;;;4996107;28;20040;-75
2021/01/18 10:50:00;;;;;;;7.32;3.90;;;1.70;99.90;;;;;;4989497;28;20030;-75
2021/01/18 10:52:41;;;;;;;6.88;3.38;;;1.70;99.90;;;;;;4994163;28;20029;-74
2021/01/18 10:55:11;;;;;;;7.97;3.45;;;1.70;99.90;;;;;;4994440;28;20038;-75
2021/01/18 10:57:47;;;;;;;6.13;3.60;;;1.70;99.90;;;;;;4992210;28;20037;-75
2021/01/18 11:00:15;;;;;;;9.65;4.40;;;1.80;99.90;;;;;;4992378;28;20037;-75
2021/01/18 11:02:42;;;;;;;6.05;3.35;;;1.90;99.90;;;;;;4993087;28;20120;-75
2021/01/18 11:05:10;;;;;;;7.15;3.45;;;1.90;99.90;;;;;;4991609;28;20600;-75
2021/01/18 11:07:45;;;;;;;8.88;3.70;;;1.90;99.90;;;;;;4994444;28;20745;-75
2021/01/18 11:10:11;;;;;;;6.60;3.72;;;1.90;99.90;;;;;;4996379;28;20048;-74
2021/01/18 11:12:41;;;;;;;6.80;3.53;;;1.90;99.90;;;;;;4996791;28;20034;-75
2021/01/18 11:15:16;;;;;;;5.75;3.47;;;2.00;99.90;;;;;;4973864;28;20034;-75
2021/01/18 11:17:42;;;;;;;8.65;4.35;;;2.00;99.90;;;;;;4998117;28;20033;-75
2021/01/18 11:20:08;;;;;;;8.23;4.60;;;2.00;99.90;;;;;;4997879;28;20060;-74
2021/01/18 11:22:34;;;;;;;7.13;4.07;;;2.00;99.90;;;;;;4994788;28;20731;-75
2021/01/18 11:25:00;;;;;;;6.90;3.22;;;2.00;99.90;;;;;;4993188;28;20030;-76
2021/01/18 11:27:26;;;;;;;5.93;3.85;;;1.90;99.90;;;;;;4994600;28;20113;-75
2021/01/18 11:29:51;;;;;;;7.40;3.97;;;1.90;99.90;;;;;;4992822;28;20026;-75
2021/01/18 11:32:18;;;;;;;6.53;4.05;;;1.90;99.90;;;;;;4997508;28;20761;-75
2021/01/18 11:34:44;;;;;;;9.68;3.95;;;2.00;99.90;;;;;;4995617;28;20099;-75
2021/01/18 11:37:10;;;;;;;5.47;3.70;;;2.00;99.90;;;;;;4994659;28;20553;-75
2021/01/18 11:39:38;;;;;;;6.13;3.45;;;2.00;99.90;;;;;;4998803;28;20030;-74
2021/01/18 11:42:06;;;;;;;4.85;3.10;;;2.10;99.90;;;;;;4996912;28;20676;-75
2021/01/18 11:44:32;;;;;;;8.50;3.97;;;2.10;99.90;;;;;;5000803;28;20026;-76
2021/01/18 11:47:00;;;;;;;6.05;3.60;;;2.10;99.90;;;;;;5001286;28;20048;-75
2021/01/18 11:49:26;;;;;;;5.90;3.60;;;2.10;99.90;;;;;;4999545;28;20037;-75
2021/01/18 11:51:57;;;;;;;7.47;4.22;;;2.10;99.90;;;;;;4998317;28;20062;-74
2021/01/18 11:54:23;;;;;;;8.32;3.80;;;2.20;99.90;;;;;;4996740;28;20122;-76
2021/01/18 11:56:49;;;;;;;8.68;4.22;;;2.20;99.90;;;;;;4993712;28;20080;-77
2021/01/18 11:59:15;;;;;;;5.43;3.58;;;2.20;99.90;;;;;;5000975;28;20034;-75
2021/01/18 12:01:45;;;;;;;9.80;4.53;;;2.20;99.90;;;;;;4980068;28;20624;-77
2021/01/18 12:04:11;;;;;;;6.57;4.30;;;2.20;99.90;;;;;;5003674;28;20038;-75
2021/01/18 12:06:37;;;;;;;8.88;4.47;;;2.20;99.90;;;;;;4979368;28;20088;-75
2021/01/18 12:09:07;;;;;;;6.75;4.35;;;2.20;99.90;;;;;;4996657;28;20508;-75
2021/01/18 12:11:37;;;;;;;8.52;4.40;;;2.20;99.90;;;;;;4994958;28;20301;-76
2021/01/18 12:14:04;;;;;;;6.40;3.67;;;2.10;99.90;;;;;;4996293;28;20307;-76
2021/01/18 12:16:30;;;;;;;8.30;3.83;;;2.10;99.90;;;;;;4996372;28;20037;-75
2021/01/18 12:18:56;;;;;;;8.20;3.60;;;2.10;99.90;;;;;;4994781;28;20026;-75
2021/01/18 12:21:22;;;;;;;6.93;4.38;;;2.10;99.90;;;;;;5002636;28;20030;-76
2021/01/18 12:23:49;;;;;;;9.23;4.60;;;2.10;99.90;;;;;;4996889;28;20102;-76
2021/01/18 12:26:16;;;;;;;9.13;3.78;;;2.10;99.90;;;;;;4991086;28;20020;-76
2021/01/18 12:28:42;;;;;;;6.72;4.10;;;2.10;99.90;;;;;;4994521;28;20022;-76
2021/01/18 12:31:07;;;;;;;7.85;4.38;;;2.10;99.90;;;;;;4996241;28;20034;-77
2021/01/18 12:33:33;;;;;;;7.60;4.00;;;2.00;99.90;;;;;;4998599;28;20041;-76
2021/01/18 12:35:59;;;;;;;7.35;4.38;;;1.90;99.90;;;;;;5012920;28;20078;-77
2021/01/18 12:38:24;;;;;;;7.40;3.90;;;1.90;99.90;;;;;;4997158;28;20034;-76
2021/01/18 12:40:50;;;;;;;5.78;3.65;;;1.90;99.90;;;;;;4985328;28;20466;-78
2021/01/18 12:43:17;;;;;;;6.75;3.90;;;1.90;99.90;;;;;;4999834;28;20032;-78
2021/01/18 12:45:44;;;;;;;5.88;2.90;;;1.90;99.90;;;;;;5017919;28;20116;-77
2021/01/18 12:48:10;;;;;;;6.60;3.15;;;1.80;99.90;;;;;;5009677;28;20512;-76
2021/01/18 12:50:36;;;;;;;5.35;3.28;;;1.80;99.90;;;;;;5013946;28;20527;-77
2021/01/18 12:53:02;;;;;;;5.70;3.55;;;1.80;99.90;;;;;;5000836;28;20040;-77
2021/01/18 12:55:29;;;;;;;7.00;4.00;;;1.70;99.90;;;;;;5007600;28;20058;-77